Time;durP1;ratioP1;P1;durP2;ratioP2;P2;SDS_P1;SDS_P2;PMS_P1;PMS_P2;Temp;Humidity;BMP_temperature;BMP_pressure;BME280_temperature;BME280_humidity;BME280_pressure;Samples;Min_cycle;Max_cycle;Signal;HPM_P1;HPM_P2
2024/02/25 00:00:00;;;;;;;;;1.33;1.33;;;;;10.52;100.00;99490.03;6185405;23;45356;-78
2024/02/25 00:02:25;;;;;;;;;3.00;3.00;;;;;10.55;100.00;99487.34;6187089;23;45225;-79
2024/02/25 00:04:52;;;;;;;;;5.00;2.00;;;;;10.54;100.00;99493.56;6183816;23;45836;-79
2024/02/25 00:07:17;;;;;;;;;3.00;3.00;;;;;10.45;100.00;99490.97;6182285;23;45313;-79
2024/02/25 00:09:43;;;;;;;;;6.00;4.00;;;;;10.39;100.00;99496.31;6181745;23;45361;-78
2024/02/25 00:12:08;;;;;;;;;2.33;1.00;;;;;10.16;100.00;99465.38;6183361;23;45434;-79
2024/02/25 00:14:33;;;;;;;;;2.00;2.00;;;;;10.14;100.00;99485.78;6183909;23;45296;-79
2024/02/25 00:16:59;;;;;;;;;6.33;6.33;;;;;10.08;100.00;99482.22;6185253;23;45314;-79
2024/02/25 00:19:26;;;;;;;;;3.00;3.00;;;;;10.12;100.00;99494.59;6186066;23;45263;-79
2024/02/25 00:21:52;;;;;;;;;2.67;2.67;;;;;10.07;100.00;99501.72;6182702;23;47413;-80
2024/02/25 00:24:19;;;;;;;;;8.33;8.00;;;;;10.10;100.00;99504.34;6182372;23;45835;-80
2024/02/25 00:26:45;;;;;;;;;4.33;4.33;;;;;10.05;100.00;99500.84;6185855;23;45380;-80
2024/02/25 00:30:04;;;;;;;;;3.00;2.00;;;;;10.29;100.00;99508.72;6185971;23;45246;-80
2024/02/25 00:32:29;;;;;;;;;5.33;4.00;;;;;9.99;100.00;99497.31;6183590;23;47127;-79
2024/02/25 00:34:55;;;;;;;;;6.67;4.00;;;;;10.00;100.00;99501.75;6184857;23;45536;-79
2024/02/25 00:37:20;;;;;;;;;3.67;3.67;;;;;9.93;100.00;99500.00;6187516;23;45361;-79
2024/02/25 00:39:45;;;;;;;;;4.33;3.67;;;;;9.99;100.00;99509.72;6186476;23;45649;-79
2024/02/25 00:42:12;;;;;;;;;3.33;2.67;;;;;10.08;100.00;99514.09;6184894;23;48333;-80
2024/02/25 00:44:39;;;;;;;;;2.00;2.00;;;;;9.94;100.00;99503.56;6186477;22;55180;-80
2024/02/25 00:47:05;;;;;;;;;6.00;3.33;;;;;9.92;100.00;99515.97;6184143;23;45333;-80
2024/02/25 00:49:31;;;;;;;;;4.67;3.00;;;;;9.90;100.00;99517.75;6185115;23;45315;-80
2024/02/25 00:51:56;;;;;;;;;3.00;3.00;;;;;9.84;100.00;99518.63;6186598;23;47193;-80
2024/02/25 00:54:21;;;;;;;;;3.00;3.00;;;;;9.87;100.00;99512.41;6188675;22;45327;-80
2024/02/25 00:56:48;;;;;;;;;4.33;2.33;;;;;9.94;100.00;99525.69;6188177;23;45215;-80
2024/02/25 00:59:16;;;;;;;;;4.00;4.00;;;;;10.07;100.00;99510.56;6186352;23;45310;-81
2024/02/25 01:01:42;;;;;;;;;4.33;4.33;;;;;9.98;100.00;99514.16;6156800;23;47266;-80
2024/02/25 01:04:07;;;;;;;;;2.00;2.00;;;;;9.98;100.00;99506.19;6182488;23;45413;-79
2024/02/25 01:06:33;;;;;;;;;6.00;2.67;;;;;10.11;100.00;99507.03;6183100;23;44829;-79
2024/02/25 01:08:58;;;;;;;;;4.33;4.33;;;;;10.11;100.00;99501.72;6185163;23;45260;-81
2024/02/25 01:11:23;;;;;;;;;6.67;3.67;;;;;10.20;100.00;99501.69;6159871;23;48703;-80
2024/02/25 01:13:49;;;;;;;;;3.00;3.00;;;;;10.26;100.00;99505.19;6185564;23;45400;-79
2024/02/25 01:16:14;;;;;;;;;2.00;2.00;;;;;10.20;100.00;99495.50;6184701;23;45452;-79
2024/02/25 01:18:40;;;;;;;;;3.33;3.33;;;;;10.21;100.00;99511.41;6159541;23;45551;-80
2024/02/25 01:21:05;;;;;;;;;6.33;3.67;;;;;10.14;100.00;99501.72;6159083;23;46588;-80
2024/02/25 01:23:30;;;;;;;;;3.33;3.33;;;;;10.01;100.00;99478.72;6185320;23;45430;-80
2024/02/25 01:25:56;;;;;;;;;2.67;2.67;;;;;10.12;100.00;99495.53;6154874;23;44988;-81
2024/02/25 01:28:21;;;;;;;;;3.00;3.00;;;;;10.10;100.00;99491.06;6184142;23;45368;-79
2024/02/25 01:30:47;;;;;;;;;0.00;0.00;;;;;10.05;100.00;99488.44;6156488;23;45517;-80
2024/02/25 01:33:16;;;;;;;;;7.00;6.00;;;;;10.19;100.00;99489.28;6156553;23;45747;-79
2024/02/25 01:35:45;;;;;;;;;3.00;3.00;;;;;10.03;100.00;99495.53;6185796;23;45441;-79
2024/02/25 01:38:10;;;;;;;;;4.33;3.00;;;;;9.97;100.00;99493.78;6184376;23;45450;-79
2024/02/25 01:40:36;;;;;;;;;7.67;6.33;;;;;9.89;100.00;99487.63;6157652;23;47157;-79
2024/02/25 01:43:14;;;;;;;;;2.00;2.00;;;;;10.08;100.00;99491.09;6157852;23;46061;-79
2024/02/25 01:45:39;;;;;;;;;3.00;2.00;;;;;9.95;100.00;99484.06;6158740;23;45668;-79
2024/02/25 01:48:07;;;;;;;;;4.67;4.67;;;;;9.88;100.00;99483.22;6158543;23;44862;-81
2024/02/25 01:50:34;;;;;;;;;3.00;3.00;;;;;9.84;100.00;99480.56;6184078;23;46017;-80
2024/02/25 01:53:03;;;;;;;;;5.00;5.00;;;;;9.94;100.00;99485.84;6185509;23;45292;-80
2024/02/25 01:55:31;;;;;;;;;3.67;3.67;;;;;9.99;100.00;99478.72;6158584;23;45372;-79
2024/02/25 01:57:58;;;;;;;;;2.67;2.67;;;;;9.90;100.00;99483.22;6169401;23;45584;-81
2024/02/25 02:00:27;;;;;;;;;5.33;3.33;;;;;9.88;100.00;99472.59;6188171;23;46073;-81
2024/02/25 02:02:52;;;;;;;;;2.67;1.67;;;;;9.76;100.00;99473.50;6187438;23;45265;-81
2024/02/25 02:05:18;;;;;;;;;6.00;2.33;;;;;9.74;100.00;99477.94;6185852;23;45297;-81
2024/02/25 02:07:47;;;;;;;;;2.00;2.00;;;;;9.79;100.00;99467.28;6182987;23;45424;-81
2024/02/25 02:10:13;;;;;;;;;2.67;2.67;;;;;9.67;100.00;99473.53;6183334;23;47040;-82
2024/02/25 02:12:46;;;;;;;;;2.67;2.67;;;;;9.82;100.00;99470.84;6183636;23;45382;-81
2024/02/25 02:16:01;;;;;;;;;3.33;3.33;;;;;9.87;100.00;99469.94;6186420;23;45466;-80
2024/02/25 02:18:27;;;;;;;;;6.00;4.00;;;;;9.58;100.00;99460.28;6186097;23;45437;-80
2024/02/25 02:20:53;;;;;;;;;3.67;3.00;;;;;9.57;100.00;99458.50;6185500;23;46560;-81
2024/02/25 02:23:18;;;;;;;;;2.00;2.00;;;;;9.54;100.00;99450.56;6186149;23;45439;-80
2024/02/25 02:25:43;;;;;;;;;5.00;3.33;;;;;9.54;100.00;99455.88;6186510;23;44772;-81
2024/02/25 02:28:11;;;;;;;;;3.67;2.00;;;;;9.65;100.00;99454.06;6186091;23;45312;-81
2024/02/25 02:30:37;;;;;;;;;2.33;2.33;;;;;9.55;100.00;99447.91;6183616;23;47140;-82
2024/02/25 02:33:02;;;;;;;;;3.00;2.33;;;;;9.55;100.00;99442.63;6183454;23;45418;-81
2024/02/25 02:38:49;;;;;;;;;2.33;2.33;;;;;9.51;100.00;99446.13;6187321;23;45581;-82
2024/02/25 02:41:19;;;;;;;;;3.00;3.00;;;;;9.48;100.00;99448.81;6187639;23;45744;-81
2024/02/25 02:43:44;;;;;;;;;2.00;2.00;;;;;9.52;100.00;99452.34;6189243;22;45333;-81
2024/02/25 02:46:10;;;;;;;;;5.00;2.67;;;;;9.50;100.00;99447.03;6183612;23;45347;-81
2024/02/25 02:48:36;;;;;;;;;2.33;2.33;;;;;9.48;100.00;99438.19;6184417;22;45410;-81
2024/02/25 02:51:01;;;;;;;;;2.67;2.67;;;;;9.44;100.00;99448.81;6184941;23;46647;-81
2024/02/25 02:53:27;;;;;;;;;5.33;4.33;;;;;9.40;100.00;99437.34;6185900;23;45395;-81
2024/02/25 02:55:52;;;;;;;;;3.00;3.00;;;;;9.34;100.00;99432.03;6187875;22;45618;-81
2024/02/25 02:58:18;;;;;;;;;6.00;4.33;;;;;9.34;100.00;99437.34;6185403;23;45425;-81
2024/02/25 03:00:43;;;;;;;;;4.33;2.00;;;;;9.31;100.00;99437.34;6183828;23;48343;-81
2024/02/25 03:03:08;;;;;;;;;1.00;1.00;;;;;9.31;100.00;99446.19;6187774;23;45368;-81
2024/02/25 03:05:35;;;;;;;;;2.67;2.00;;;;;9.31;100.00;99447.94;6189202;23;45329;-81
2024/02/25 03:08:00;;;;;;;;;8.00;5.00;;;;;9.40;100.00;99448.81;6186551;23;45451;-82
2024/02/25 03:10:26;;;;;;;;;5.00;2.00;;;;;9.43;100.00;99447.91;6185816;23;47223;-81
2024/02/25 03:12:51;;;;;;;;;3.67;3.67;;;;;9.38;100.00;99431.13;6182788;23;45922;-81
2024/02/25 03:15:17;;;;;;;;;6.00;5.00;;;;;9.45;100.00;99443.50;6184157;23;45371;-81
2024/02/25 03:17:42;;;;;;;;;3.00;3.00;;;;;9.50;100.00;99452.34;6185331;23;45372;-81
2024/02/25 03:20:09;;;;;;;;;6.67;5.00;;;;;9.59;100.00;99448.78;6187045;23;46167;-80
2024/02/25 03:22:35;;;;;;;;;4.67;4.67;;;;;9.61;100.00;99441.69;6184295;23;44854;-81
2024/02/25 03:25:03;;;;;;;;;3.33;2.00;;;;;9.66;100.00;99439.91;6187582;23;45482;-81
2024/02/25 03:27:29;;;;;;;;;2.67;2.67;;;;;9.60;100.00;99426.66;6182955;23;45535;-81
2024/02/25 03:29:54;;;;;;;;;3.67;3.00;;;;;9.59;100.00;99422.22;6183010;23;45910;-81
2024/02/25 03:32:20;;;;;;;;;2.33;2.33;;;;;9.69;100.00;99436.34;6183126;23;45462;-82
2024/02/25 03:38:07;;;;;;;;;3.00;3.00;;;;;9.87;100.00;99424.78;6187274;23;45423;-81
2024/02/25 03:40:32;;;;;;;;;3.00;3.00;;;;;9.92;100.00;99431.84;6186474;23;46155;-81
2024/02/25 03:42:58;;;;;;;;;6.00;6.00;;;;;9.98;100.00;99428.28;6185224;22;44904;-81
2024/02/25 03:45:23;;;;;;;;;3.00;3.00;;;;;9.99;100.00;99430.03;6187915;23;45369;-82
2024/02/25 03:47:49;;;;;;;;;6.67;6.67;;;;;10.00;100.00;99430.03;6183483;23;45306;-82
2024/02/25 03:50:14;;;;;;;;;2.00;2.00;;;;;10.15;100.00;99434.38;6182983;23;47346;-81
2024/02/25 03:52:39;;;;;;;;;4.33;2.67;;;;;10.06;100.00;99434.44;6185132;23;45410;-81
2024/02/25 03:55:06;;;;;;;;;1.67;1.00;;;;;10.12;100.00;99434.41;6187225;22;45941;-81
2024/02/25 03:57:32;;;;;;;;;5.00;3.00;;;;;10.01;100.00;99423.81;6188359;23;46422;-81
2024/02/25 03:59:57;;;;;;;;;5.33;5.33;;;;;10.05;100.00;99432.66;6182864;23;47021;-81
2024/02/25 04:02:23;;;;;;;;;2.00;2.00;;;;;10.04;100.00;99428.25;6185406;23;45247;-82
2024/02/25 04:04:54;;;;;;;;;5.00;2.33;;;;;10.05;100.00;99430.00;6182613;23;45310;-81
2024/02/25 04:07:20;;;;;;;;;3.00;3.00;;;;;9.99;100.00;99427.38;6185524;23;45421;-81
2024/02/25 04:09:45;;;;;;;;;5.00;5.00;;;;;10.07;100.00;99430.88;6186067;23;45373;-81
2024/02/25 04:12:11;;;;;;;;;3.00;3.00;;;;;10.10;100.00;99425.56;6185606;23;45559;-81
2024/02/25 04:14:36;;;;;;;;;4.33;3.00;;;;;10.04;100.00;99419.38;6184661;23;45296;-81
2024/02/25 04:17:02;;;;;;;;;3.33;3.33;;;;;10.07;100.00;99422.91;6189988;23;45264;-81
2024/02/25 04:19:28;;;;;;;;;3.00;3.00;;;;;10.10;100.00;99419.34;6188892;23;46225;-80
2024/02/25 04:21:53;;;;;;;;;3.00;3.00;;;;;10.06;100.00;99412.28;6189322;23;44677;-80
2024/02/25 04:24:18;;;;;;;;;3.67;2.00;;;;;10.03;100.00;99418.50;6186212;23;45281;-81
2024/02/25 04:26:48;;;;;;;;;3.67;2.00;;;;;10.13;100.00;99422.00;6188326;23;45280;-81
2024/02/25 04:29:13;;;;;;;;;6.00;5.00;;;;;10.04;100.00;99424.69;6186515;23;45311;-81
2024/02/25 04:31:45;;;;;;;;;5.00;5.00;;;;;10.23;100.00;99430.81;6184397;23;45420;-80
2024/02/25 04:34:12;;;;;;;;;5.00;5.00;;;;;10.11;100.00;99431.75;6185113;23;45400;-81
2024/02/25 04:36:38;;;;;;;;;3.00;3.00;;;;;10.09;100.00;99431.75;6185834;23;45234;-81
2024/02/25 04:39:03;;;;;;;;;4.33;4.33;;;;;10.05;100.00;99426.47;6185783;23;48435;-81
2024/02/25 04:41:29;;;;;;;;;5.00;5.00;;;;;10.04;100.00;99436.22;6188205;23;45364;-81
2024/02/25 04:43:54;;;;;;;;;5.00;2.67;;;;;9.99;100.00;99438.00;6190389;23;45371;-80
2024/02/25 04:46:20;;;;;;;;;3.00;3.00;;;;;9.93;100.00;99435.38;6188390;23;45348;-81
2024/02/25 04:48:45;;;;;;;;;4.33;4.33;;;;;9.93;100.00;99430.06;6184364;23;46906;-81
2024/02/25 04:51:11;;;;;;;;;3.00;2.00;;;;;9.85;100.00;99429.22;6186172;23;45245;-81
2024/02/25 04:53:37;;;;;;;;;5.00;5.00;;;;;9.84;100.00;99419.47;6186079;23;45389;-81
2024/02/25 04:56:04;;;;;;;;;2.00;2.00;;;;;9.81;100.00;99423.91;6188760;22;44741;-81
2024/02/25 04:58:29;;;;;;;;;0.67;0.00;;;;;9.83;100.00;99426.56;6187324;22;46005;-81
2024/02/25 05:00:55;;;;;;;;;2.00;2.00;;;;;9.77;100.00;99421.28;6161439;23;45261;-82
2024/02/25 05:03:20;;;;;;;;;4.33;4.33;;;;;9.82;100.00;99417.72;6161681;22;45323;-81
2024/02/25 05:05:45;;;;;;;;;3.67;3.67;;;;;9.64;100.00;99417.81;6189793;23;44817;-81
2024/02/25 05:08:11;;;;;;;;;8.67;4.33;;;;;9.60;100.00;99403.66;6160966;23;47472;-81
2024/02/25 05:10:39;;;;;;;;;7.33;3.00;;;;;9.75;100.00;99418.63;6160667;23;45493;-81
2024/02/25 05:13:04;;;;;;;;;6.67;5.33;;;;;9.58;100.00;99420.47;6188114;23;45494;-81
2024/02/25 05:15:33;;;;;;;;;9.33;6.00;;;;;9.81;100.00;99420.38;6186645;23;45426;-82
2024/02/25 05:17:59;;;;;;;;;8.67;6.00;;;;;9.69;100.00;99428.41;6186969;23;45352;-81
2024/02/25 05:20:27;;;;;;;;;5.67;5.33;;;;;9.75;100.00;99423.06;6160620;23;45373;-82
2024/02/25 05:22:54;;;;;;;;;8.00;6.67;;;;;9.78;100.00;99418.63;6161527;23;45381;-82
2024/02/25 05:25:19;;;;;;;;;7.00;7.00;;;;;9.75;100.00;99418.63;6188381;23;45416;-81
2024/02/25 05:27:46;;;;;;;;;10.33;8.00;;;;;9.85;100.00;99424.78;6163203;23;47287;-81
2024/02/25 05:30:12;;;;;;;;;5.67;5.67;;;;;9.84;100.00;99422.13;6166933;23;44967;-82
2024/02/25 05:32:38;;;;;;;;;6.67;6.67;;;;;9.82;100.00;99438.09;6189303;23;45258;-81
2024/02/25 05:35:05;;;;;;;;;6.33;5.00;;;;;9.84;100.00;99424.78;6194613;23;44711;-81
2024/02/25 05:37:31;;;;;;;;;2.33;2.33;;;;;9.86;100.00;99431.88;6191834;23;46554;-81
2024/02/25 05:39:57;;;;;;;;;6.67;6.67;;;;;9.88;100.00;99416.81;6164407;23;45472;-82
2024/02/25 05:42:22;;;;;;;;;6.33;5.00;;;;;9.94;100.00;99419.44;6163696;23;45377;-82
2024/02/25 05:44:55;;;;;;;;;6.33;5.67;;;;;10.21;100.00;99426.38;6184063;23;45457;-82
2024/02/25 05:47:20;;;;;;;;;10.00;6.00;;;;;9.98;100.00;99421.19;6157011;23;46883;-82
2024/02/25 05:49:46;;;;;;;;;4.33;4.00;;;;;9.94;100.00;99414.13;6185709;23;45444;-82
2024/02/25 05:52:11;;;;;;;;;8.00;5.00;;;;;9.97;100.00;99407.91;6157793;23;45570;-81
2024/02/25 05:54:37;;;;;;;;;6.33;6.33;;;;;9.95;100.00;99426.50;6185253;23;45901;-82
2024/02/25 05:57:04;;;;;;;;;7.00;5.00;;;;;10.05;100.00;99419.38;6184228;23;46492;-82
2024/02/25 05:59:30;;;;;;;;;6.00;5.00;;;;;9.91;100.00;99413.25;6181644;23;45535;-81
2024/02/25 06:01:55;;;;;;;;;6.33;6.33;;;;;9.91;100.00;99413.25;6182081;23;45397;-82
2024/02/25 06:04:21;;;;;;;;;5.00;5.00;;;;;9.86;100.00;99410.63;6184092;23;45477;-82
2024/02/25 06:07:04;;;;;;;;;5.00;5.00;;;;;10.13;100.00;99412.25;6182868;23;45326;-82
2024/02/25 06:09:30;;;;;;;;;6.00;6.00;;;;;9.93;100.00;99403.50;6180548;23;45384;-81
2024/02/25 06:11:55;;;;;;;;;6.67;5.00;;;;;9.97;100.00;99411.44;6185388;23;45550;-82
2024/02/25 06:14:21;;;;;;;;;6.67;6.33;;;;;9.91;100.00;99397.31;6183420;23;45465;-82
2024/02/25 06:16:46;;;;;;;;;3.67;3.67;;;;;9.88;100.00;99392.91;6182525;23;46794;-82
2024/02/25 06:19:11;;;;;;;;;5.67;5.67;;;;;9.74;100.00;99387.66;6181685;23;45398;-82
2024/02/25 06:21:44;;;;;;;;;3.33;3.00;;;;;9.81;100.00;99386.75;6183632;23;45373;-82
2024/02/25 06:24:09;;;;;;;;;5.00;5.00;;;;;9.54;100.00;99381.56;6184655;23;45445;-82
2024/02/25 06:26:35;;;;;;;;;7.67;3.00;;;;;9.56;100.00;99385.09;6185039;23;47469;-81
2024/02/25 06:29:00;;;;;;;;;3.67;3.67;;;;;9.64;100.00;99385.94;6185488;23;45444;-82
2024/02/25 06:31:29;;;;;;;;;6.00;6.00;;;;;9.55;100.00;99367.38;6187302;23;45368;-81
2024/02/25 06:33:55;;;;;;;;;3.00;3.00;;;;;9.62;100.00;99374.44;6189254;23;45327;-80
2024/02/25 06:36:21;;;;;;;;;6.33;5.67;;;;;9.78;100.00;99386.75;6181030;23;47586;-81
2024/02/25 06:38:49;;;;;;;;;6.00;6.00;;;;;9.70;100.00;99377.97;6184215;23;44846;-81
2024/02/25 06:41:18;;;;;;;;;3.00;3.00;;;;;9.95;100.00;99391.09;6183430;23;45556;-81
2024/02/25 06:43:44;;;;;;;;;7.00;4.33;;;;;9.78;100.00;99386.75;6183377;23;45306;-81
2024/02/25 06:46:09;;;;;;;;;8.00;5.67;;;;;9.89;100.00;99385.84;6185613;23;45333;-80
2024/02/25 06:48:35;;;;;;;;;6.00;5.00;;;;;10.02;100.00;99391.06;6186174;23;45367;-81
2024/02/25 06:51:00;;;;;;;;;6.67;5.00;;;;;10.00;100.00;99384.00;6189073;23;45313;-81
2024/02/25 06:53:27;;;;;;;;;5.00;5.00;;;;;10.03;100.00;99378.66;6185995;23;45282;-81
2024/02/25 06:55:52;;;;;;;;;7.00;5.00;;;;;10.01;100.00;99372.47;6186681;23;45527;-81
2024/02/25 06:58:18;;;;;;;;;4.33;4.33;;;;;10.08;100.00;99379.53;6184103;23;45357;-81
2024/02/25 07:00:43;;;;;;;;;4.67;4.67;;;;;10.14;100.00;99362.66;6186754;23;45297;-81
2024/02/25 07:03:09;;;;;;;;;6.00;6.00;;;;;10.14;100.00;99358.25;6183642;23;45485;-81
2024/02/25 07:05:34;;;;;;;;;7.00;4.33;;;;;10.25;100.00;99366.13;6184569;23;46729;-82
2024/02/25 07:07:59;;;;;;;;;3.33;2.67;;;;;10.32;100.00;99359.94;6182873;23;44898;-82
2024/02/25 07:10:25;;;;;;;;;4.00;4.00;;;;;10.42;100.00;99368.69;6185053;23;45335;-82
2024/02/25 07:12:50;;;;;;;;;3.00;3.00;;;;;10.51;100.00;99365.97;6184914;23;45416;-82
2024/02/25 07:15:16;;;;;;;;;3.00;3.00;;;;;10.48;100.00;99354.47;6184523;22;46845;-82
2024/02/25 07:17:41;;;;;;;;;4.00;2.67;;;;;10.47;100.00;99350.94;6186517;23;45309;-81
2024/02/25 07:20:08;;;;;;;;;3.33;3.33;;;;;10.58;100.00;99357.09;6185892;23;45289;-81
2024/02/25 07:22:33;;;;;;;;;3.33;3.00;;;;;10.44;100.00;99350.97;6188669;22;45357;-82
2024/02/25 07:24:59;;;;;;;;;5.67;3.67;;;;;10.49;100.00;99349.16;6187086;22;45280;-82
2024/02/25 07:27:24;;;;;;;;;3.00;3.00;;;;;10.53;100.00;99350.91;6183308;23;45291;-80
2024/02/25 07:29:49;;;;;;;;;4.00;4.00;;;;;10.56;100.00;99353.56;6186726;23;45258;-81
2024/02/25 07:32:15;;;;;;;;;2.00;2.00;;;;;10.66;100.00;99353.47;6185520;23;45353;-80
2024/02/25 07:34:42;;;;;;;;;3.00;3.00;;;;;10.71;100.00;99352.53;6182972;23;47275;-80
2024/02/25 07:37:08;;;;;;;;;4.00;4.00;;;;;10.76;100.00;99336.53;6185269;23;45462;-80
2024/02/25 07:39:33;;;;;;;;;6.00;2.67;;;;;10.68;100.00;99320.63;6183044;23;45415;-82
2024/02/25 07:41:59;;;;;;;;;5.00;2.67;;;;;10.82;100.00;99328.47;6184826;23;45547;-81
2024/02/25 07:44:24;;;;;;;;;3.67;3.67;;;;;10.81;100.00;99330.28;6183200;23;47937;-81
2024/02/25 07:46:50;;;;;;;;;2.67;2.67;;;;;10.84;100.00;99326.69;6180657;23;45345;-81
2024/02/25 07:49:15;;;;;;;;;3.33;3.00;;;;;10.96;100.00;99328.34;6180479;23;45328;-80
2024/02/25 07:51:40;;;;;;;;;3.00;3.00;;;;;11.00;100.00;99322.97;6184403;22;45305;-80
2024/02/25 07:54:06;;;;;;;;;3.67;3.00;;;;;11.05;100.00;99316.72;6180768;23;48438;-81
2024/02/25 07:56:32;;;;;;;;;2.00;2.00;;;;;11.23;100.00;99321.88;6184048;23;45389;-81
2024/02/25 07:58:58;;;;;;;;;3.00;3.00;;;;;11.14;100.00;99329.94;6178210;23;45816;-81
2024/02/25 08:01:23;;;;;;;;;2.00;2.00;;;;;11.09;100.00;99326.44;6185413;23;45269;-80
2024/02/25 08:03:49;;;;;;;;;7.00;6.00;;;;;11.00;100.00;99317.66;6183448;23;47234;-81
2024/02/25 08:06:27;;;;;;;;;2.00;2.00;;;;;11.28;100.00;99319.16;6182077;23;45191;-82
2024/02/25 08:08:52;;;;;;;;;3.00;2.00;;;;;11.10;100.00;99312.25;6181964;23;45380;-82
2024/02/25 08:11:18;;;;;;;;;3.00;3.00;;;;;11.16;100.00;99312.19;6181276;23;45349;-80
2024/02/25 08:13:43;;;;;;;;;4.00;2.67;;;;;11.08;100.00;99312.25;6184510;23;46253;-81
2024/02/25 08:16:08;;;;;;;;;4.00;4.00;;;;;11.08;100.00;99306.94;6181717;23;62260;-80
2024/02/25 08:18:34;;;;;;;;;6.00;6.00;;;;;11.09;100.00;99311.38;6183122;23;45411;-80
2024/02/25 08:21:01;;;;;;;;;3.33;2.00;;;;;11.19;100.00;99309.50;6181545;23;45395;-81
2024/02/25 08:23:27;;;;;;;;;3.00;3.00;;;;;11.12;100.00;99307.78;6182855;23;47247;-81
2024/02/25 08:25:52;;;;;;;;;1.33;1.00;;;;;11.12;100.00;99313.09;6183221;23;45227;-81
2024/02/25 08:28:18;;;;;;;;;4.00;4.00;;;;;11.10;100.00;99310.47;6185916;23;45241;-82
2024/02/25 08:30:43;;;;;;;;;2.67;2.67;;;;;11.15;100.00;99310.41;6181923;23;45562;-81
2024/02/25 08:33:08;;;;;;;;;4.00;3.00;;;;;11.12;100.00;99302.47;6181195;23;47210;-80
2024/02/25 08:35:34;;;;;;;;;6.67;3.00;;;;;11.09;100.00;99294.50;6182485;23;45246;-81
2024/02/25 08:37:59;;;;;;;;;3.00;2.67;;;;;11.08;100.00;99309.59;6180380;23;45386;-81
2024/02/25 08:40:25;;;;;;;;;4.00;4.00;;;;;11.02;100.00;99294.56;6181596;23;45394;-81
2024/02/25 08:42:51;;;;;;;;;3.67;3.67;;;;;11.05;100.00;99303.41;6181777;23;46733;-80
2024/02/25 08:45:18;;;;;;;;;6.67;3.00;;;;;11.17;100.00;99305.97;6182368;23;45781;-81
2024/02/25 08:47:43;;;;;;;;;6.33;4.00;;;;;11.06;100.00;99291.91;6185153;23;45250;-81
2024/02/25 08:50:12;;;;;;;;;4.00;4.00;;;;;11.29;100.00;99300.50;6187193;23;45403;-81
2024/02/25 08:52:38;;;;;;;;;10.33;7.00;;;;;11.11;100.00;99290.94;6186824;22;45358;-81
2024/02/25 08:55:03;;;;;;;;;7.00;5.33;;;;;11.12;100.00;99302.47;6184994;23;45661;-81
2024/02/25 08:57:31;;;;;;;;;4.67;4.00;;;;;11.11;100.00;99300.69;6181984;23;45330;-81
2024/02/25 08:59:58;;;;;;;;;6.00;4.00;;;;;11.17;100.00;99293.53;6159198;23;45445;-80
2024/02/25 09:02:23;;;;;;;;;4.33;3.33;;;;;11.19;100.00;99283.75;6185035;23;45973;-81
2024/02/25 09:04:51;;;;;;;;;4.67;3.00;;;;;11.30;100.00;99290.72;6155702;23;45622;-81
2024/02/25 09:07:17;;;;;;;;;2.67;2.67;;;;;11.27;100.00;99291.66;6159330;23;45448;-80
2024/02/25 09:09:42;;;;;;;;;8.33;3.00;;;;;11.23;100.00;99279.28;6186927;23;45278;-81
2024/02/25 09:12:09;;;;;;;;;6.00;3.67;;;;;11.25;100.00;99269.50;6157588;23;47342;-81
2024/02/25 09:14:35;;;;;;;;;3.33;3.00;;;;;11.28;100.00;99277.44;6185461;23;45694;-81
2024/02/25 09:17:00;;;;;;;;;9.67;6.00;;;;;11.33;100.00;99264.06;6183711;23;45426;-81
2024/02/25 09:19:26;;;;;;;;;3.00;3.00;;;;;11.34;100.00;99261.38;6156725;23;45433;-81
2024/02/25 09:21:51;;;;;;;;;7.00;5.33;;;;;11.40;100.00;99260.44;6157209;23;46940;-81
2024/02/25 09:24:17;;;;;;;;;4.67;4.00;;;;;11.40;100.00;99268.41;6184219;23;45343;-80
2024/02/25 09:26:45;;;;;;;;;3.67;3.00;;;;;11.40;100.00;99258.66;6157050;23;45416;-80
2024/02/25 09:29:11;;;;;;;;;4.00;1.00;;;;;11.46;100.00;99260.34;6157202;23;44973;-81
2024/02/25 09:31:36;;;;;;;;;4.00;2.33;;;;;11.34;100.00;99236.56;6157840;23;46907;-81
2024/02/25 09:34:04;;;;;;;;;2.00;1.67;;;;;11.37;100.00;99223.19;6158338;23;44988;-80
2024/02/25 09:36:30;;;;;;;;;4.00;2.00;;;;;11.40;100.00;99225.81;6157073;23;45270;-82
2024/02/25 09:38:58;;;;;;;;;4.33;3.33;;;;;11.58;100.00;99238.00;6158227;23;45150;-81
2024/02/25 09:41:28;;;;;;;;;3.67;3.00;;;;;11.91;100.00;99230.44;6156748;23;47988;-82
2024/02/25 09:43:55;;;;;;;;;3.00;3.00;;;;;11.76;100.00;99215.56;6187467;23;45234;-82
2024/02/25 09:46:22;;;;;;;;;5.33;3.00;;;;;11.91;100.00;99227.78;6156890;23;44809;-81
2024/02/25 09:48:52;;;;;;;;;3.00;3.00;;;;;11.87;100.00;99218.91;6156862;23;45503;-81
2024/02/25 09:51:21;;;;;;;;;2.33;2.33;;;;;11.85;100.00;99203.88;6158169;23;47127;-82
2024/02/25 09:53:49;;;;;;;;;6.00;3.67;;;;;11.87;100.00;99200.25;6157649;23;45669;-81
2024/02/25 09:56:15;;;;;;;;;2.00;2.00;;;;;11.79;100.00;99203.03;6158140;23;45007;-81
2024/02/25 09:58:40;;;;;;;;;4.00;2.00;;;;;11.92;100.00;99210.91;6167821;23;45427;-82
2024/02/25 10:01:12;;;;;;;;;4.00;4.00;;;;;11.86;100.00;99192.31;6184880;23;46210;-81
2024/02/25 10:03:45;;;;;;;;;2.00;2.00;;;;;12.12;100.00;99195.47;6183658;22;45363;-81
2024/02/25 10:06:12;;;;;;;;;3.00;3.00;;;;;11.85;98.25;99187.88;6182958;23;45360;-82
2024/02/25 10:08:47;;;;;;;;;0.00;0.00;;;;;11.99;100.00;99186.78;6181617;23;45305;-82
2024/02/25 10:11:12;;;;;;;;;2.00;2.00;;;;;11.87;100.00;99175.41;6182774;23;45414;-82
2024/02/25 10:13:40;;;;;;;;;2.00;2.00;;;;;11.82;100.00;99171.06;6181981;23;45408;-82
2024/02/25 10:16:13;;;;;;;;;3.00;1.67;;;;;11.90;100.00;99175.41;6182498;23;45419;-81
2024/02/25 10:18:38;;;;;;;;;6.00;3.00;;;;;11.93;100.00;99154.03;6188067;23;45381;-82
2024/02/25 10:21:07;;;;;;;;;4.00;3.00;;;;;12.21;100.00;99155.31;6184905;23;47009;-82
2024/02/25 10:23:34;;;;;;;;;6.00;4.67;;;;;12.12;100.00;99163.47;6184584;23;45301;-81
2024/02/25 10:26:32;;;;;;;;;3.33;3.33;;;;;12.37;100.00;99155.03;6185023;23;45297;-82
2024/02/25 10:29:07;;;;;;;;;2.00;1.00;;;;;12.38;98.90;99147.03;6180815;23;45453;-82
2024/02/25 10:31:33;;;;;;;;;2.67;2.00;;;;;12.32;100.00;99148.91;6183547;23;47115;-82
2024/02/25 10:33:59;;;;;;;;;2.00;1.00;;;;;12.47;100.00;99151.28;6181889;23;45344;-82
2024/02/25 10:36:26;;;;;;;;;4.00;2.00;;;;;12.59;100.00;99135.03;6182913;23;46870;-82
2024/02/25 10:38:55;;;;;;;;;3.00;2.00;;;;;12.80;97.59;99138.19;6185029;22;45403;-81
2024/02/25 10:41:21;;;;;;;;;2.00;2.00;;;;;12.73;99.36;99120.56;6182862;23;46702;-81
2024/02/25 10:44:03;;;;;;;;;1.67;1.00;;;;;12.92;96.73;99127.25;6184283;23;45328;-81
2024/02/25 10:46:44;;;;;;;;;2.00;1.00;;;;;13.01;100.00;99127.06;6186536;23;45237;-82
2024/02/25 10:49:14;;;;;;;;;3.00;3.00;;;;;12.97;92.84;99116.50;6184360;23;45360;-82
2024/02/25 10:51:41;;;;;;;;;2.00;2.00;;;;;12.88;95.04;99104.22;6186338;23;46149;-81
2024/02/25 10:54:09;;;;;;;;;4.00;4.00;;;;;13.00;100.00;99098.59;6184397;23;45762;-81
2024/02/25 10:56:36;;;;;;;;;3.67;3.67;;;;;13.09;94.09;99093.97;6185841;22;45383;-81
2024/02/25 10:59:02;;;;;;;;;3.00;3.00;;;;;13.06;93.44;99096.72;6179245;23;45329;-82
2024/02/25 11:01:29;;;;;;;;;5.33;2.67;;;;;13.18;95.49;99081.28;6184757;23;45593;-82
2024/02/25 11:03:55;;;;;;;;;5.67;4.00;;;;;13.17;91.42;99079.56;6185248;23;45289;-81
2024/02/25 11:06:49;;;;;;;;;3.00;3.00;;;;;13.27;87.19;99056.19;6184081;23;44704;-81
2024/02/25 11:09:15;;;;;;;;;4.00;4.00;;;;;13.10;89.52;99063.72;6165133;23;45299;-81
2024/02/25 11:11:45;;;;;;;;;3.00;3.00;;;;;13.23;89.41;99050.94;6184418;23;47949;-81
2024/02/25 11:14:18;;;;;;;;;5.33;4.00;;;;;13.38;90.95;99051.50;6184282;23;45435;-81
2024/02/25 11:16:47;;;;;;;;;3.33;3.00;;;;;13.35;92.01;99046.25;6185088;22;45428;-81
2024/02/25 11:19:20;;;;;;;;;3.00;3.00;;;;;13.37;91.44;99028.38;6185210;23;45243;-82
2024/02/25 11:21:52;;;;;;;;;4.00;4.00;;;;;13.39;88.25;99031.00;6184189;23;45462;-82
2024/02/25 11:24:45;;;;;;;;;3.00;3.00;;;;;13.44;86.22;99018.41;6184282;23;45461;-81
2024/02/25 11:27:12;;;;;;;;;5.33;3.67;;;;;13.22;87.75;99015.38;6186453;23;45270;-81
2024/02/25 11:29:38;;;;;;;;;3.00;2.67;;;;;13.22;84.45;99007.38;6186935;23;45427;-83
2024/02/25 11:32:04;;;;;;;;;6.67;4.67;;;;;13.23;90.51;98993.13;6183601;23;47474;-82
2024/02/25 11:34:39;;;;;;;;;2.00;2.00;;;;;13.36;85.78;99002.59;6182013;23;45760;-82